createdAt,value
2017-06-27T00:00:33.005Z,0
2017-06-27T00:01:13.554Z,0
2017-06-27T00:01:54.078Z,0
2017-06-27T00:02:34.641Z,0
2017-06-27T00:03:15.179Z,0
2017-06-27T00:03:55.718Z,0
2017-06-27T00:04:36.260Z,0
2017-06-27T00:05:16.783Z,0
2017-06-27T00:05:57.345Z,0
2017-06-27T00:06:37.875Z,0
2017-06-27T00:07:18.422Z,0
2017-06-27T00:07:58.935Z,0
2017-06-27T00:08:39.470Z,0
2017-06-27T00:09:19.996Z,0
2017-06-27T00:10:00.534Z,0
2017-06-27T00:10:41.066Z,0
2017-06-27T00:11:21.618Z,0
2017-06-27T00:12:02.158Z,0
2017-06-27T00:12:42.678Z,0
2017-06-27T00:13:23.200Z,0
2017-06-27T00:14:03.733Z,0
2017-06-27T00:14:44.271Z,0
2017-06-27T00:15:24.811Z,0
2017-06-27T00:16:05.330Z,0
2017-06-27T00:16:45.876Z,0
2017-06-27T00:17:26.415Z,0
2017-06-27T00:18:06.955Z,0
2017-06-27T00:18:47.489Z,0
2017-06-27T00:19:28.026Z,0
2017-06-27T00:20:08.577Z,0
2017-06-27T00:20:49.117Z,0
2017-06-27T00:21:29.638Z,0
2017-06-27T00:22:10.185Z,0
2017-06-27T00:22:50.734Z,0
2017-06-27T00:23:31.251Z,0
2017-06-27T00:24:11.791Z,0
2017-06-27T00:24:52.333Z,0
2017-06-27T00:25:32.885Z,0
2017-06-27T00:26:13.483Z,0
2017-06-27T00:26:54.000Z,0
2017-06-27T00:27:34.538Z,0
2017-06-27T00:28:15.085Z,0
2017-06-27T00:28:55.628Z,0
2017-06-27T00:29:36.175Z,0
2017-06-27T00:30:16.704Z,0
2017-06-27T00:30:57.240Z,0
2017-06-27T00:31:37.770Z,0
2017-06-27T00:32:18.337Z,0
2017-06-27T00:32:58.863Z,0
2017-06-27T00:33:39.402Z,0
2017-06-27T00:34:19.940Z,0
2017-06-27T00:35:00.479Z,0
2017-06-27T00:35:40.997Z,0
2017-06-27T00:36:21.549Z,0
2017-06-27T00:37:02.073Z,0
2017-06-27T00:37:42.633Z,0
2017-06-27T00:38:23.142Z,0
2017-06-27T00:39:03.654Z,0
2017-06-27T00:39:44.219Z,0
2017-06-27T00:40:24.753Z,0
2017-06-27T00:41:05.311Z,0
2017-06-27T00:41:45.829Z,0
2017-06-27T00:42:26.350Z,0
2017-06-27T00:43:06.887Z,0
2017-06-27T00:43:47.406Z,0
2017-06-27T00:44:27.953Z,0
2017-06-27T00:45:08.507Z,0
2017-06-27T00:45:49.025Z,0
2017-06-27T00:46:29.699Z,0
2017-06-27T00:47:10.222Z,0
2017-06-27T00:47:50.742Z,0
2017-06-27T00:48:31.272Z,0
2017-06-27T00:49:11.819Z,0
2017-06-27T00:49:52.361Z,0
2017-06-27T00:50:32.903Z,0
2017-06-27T00:51:13.427Z,0
2017-06-27T00:51:53.967Z,0
2017-06-27T00:52:34.508Z,0
2017-06-27T00:53:15.059Z,0
2017-06-27T00:53:55.601Z,0
2017-06-27T00:54:36.179Z,0
2017-06-27T00:55:16.732Z,0
2017-06-27T00:55:57.266Z,0
2017-06-27T00:56:37.802Z,0
2017-06-27T00:57:18.332Z,0
2017-06-27T00:57:58.863Z,0
2017-06-27T00:58:39.425Z,0
2017-06-27T00:59:19.969Z,0
2017-06-27T01:00:00.510Z,0
2017-06-27T01:00:41.031Z,0
2017-06-27T01:01:21.573Z,0
2017-06-27T01:02:02.114Z,0
2017-06-27T01:02:42.657Z,0
2017-06-27T01:03:23.193Z,0
2017-06-27T01:04:03.726Z,0
2017-06-27T01:04:44.252Z,0
2017-06-27T01:05:24.782Z,0
2017-06-27T01:06:05.318Z,0
2017-06-27T01:06:45.860Z,0
2017-06-27T01:07:26.400Z,0
2017-06-27T01:08:06.961Z,0
2017-06-27T01:08:47.492Z,0
2017-06-27T01:09:28.033Z,0
2017-06-27T01:10:08.583Z,0
2017-06-27T01:10:49.111Z,0
2017-06-27T01:11:29.639Z,0
2017-06-27T01:12:10.191Z,0
2017-06-27T01:12:50.729Z,0
2017-06-27T01:13:31.268Z,0
2017-06-27T01:14:11.810Z,0
2017-06-27T01:14:52.341Z,0
2017-06-27T01:15:32.884Z,0
2017-06-27T01:16:13.414Z,0
2017-06-27T01:16:53.938Z,0
2017-06-27T01:17:34.474Z,0
2017-06-27T01:18:14.990Z,0
2017-06-27T01:18:55.515Z,0
2017-06-27T01:19:36.052Z,0
2017-06-27T01:20:16.593Z,0
2017-06-27T01:20:57.161Z,0
2017-06-27T01:21:37.673Z,0
2017-06-27T01:22:18.211Z,0
2017-06-27T01:22:58.765Z,0
2017-06-27T01:23:39.295Z,0
2017-06-27T01:24:19.852Z,0
2017-06-27T01:25:00.395Z,0
2017-06-27T01:25:40.921Z,0
2017-06-27T01:26:21.462Z,0
2017-06-27T01:27:02.001Z,0
2017-06-27T01:27:42.540Z,0
2017-06-27T01:28:23.080Z,0
2017-06-27T01:29:03.602Z,0
2017-06-27T01:29:44.140Z,0
2017-06-27T01:30:24.667Z,0
2017-06-27T01:31:05.211Z,0
2017-06-27T01:31:45.752Z,0
2017-06-27T01:32:26.295Z,0
2017-06-27T01:33:06.838Z,0
2017-06-27T01:33:47.392Z,0
2017-06-27T01:34:27.937Z,0
2017-06-27T01:35:08.475Z,0
2017-06-27T01:35:49.037Z,0
2017-06-27T01:36:29.578Z,0
2017-06-27T01:37:10.107Z,0
2017-06-27T01:37:50.636Z,0
2017-06-27T01:38:31.166Z,0
2017-06-27T01:39:11.704Z,0
2017-06-27T01:39:52.247Z,0
2017-06-27T01:40:32.793Z,0
2017-06-27T01:41:13.333Z,0
2017-06-27T01:41:53.862Z,0
2017-06-27T01:42:34.397Z,0
2017-06-27T01:43:14.957Z,0
2017-06-27T01:43:55.472Z,0
2017-06-27T01:44:36.002Z,0
2017-06-27T01:45:16.539Z,0
2017-06-27T01:45:57.062Z,0
2017-06-27T01:46:37.613Z,0
2017-06-27T01:47:18.122Z,0
2017-06-27T01:47:58.658Z,0
2017-06-27T01:48:39.209Z,0
2017-06-27T01:49:19.749Z,0
2017-06-27T01:50:00.281Z,0
2017-06-27T01:50:40.817Z,0
2017-06-27T01:51:21.364Z,0
2017-06-27T01:52:01.917Z,0
2017-06-27T01:52:42.485Z,0
2017-06-27T01:53:23.020Z,0
2017-06-27T01:54:03.547Z,0
2017-06-27T01:54:44.086Z,0
2017-06-27T01:55:24.625Z,0
2017-06-27T01:56:05.164Z,0
2017-06-27T01:56:45.710Z,0
2017-06-27T01:57:26.230Z,0
2017-06-27T01:58:06.776Z,0
2017-06-27T01:58:47.326Z,0
2017-06-27T01:59:27.882Z,0
2017-06-27T02:00:08.422Z,0
2017-06-27T02:00:48.940Z,0
2017-06-27T02:01:29.472Z,0
2017-06-27T02:02:10.016Z,0
2017-06-27T02:02:50.552Z,0
2017-06-27T02:03:31.082Z,0
2017-06-27T02:04:11.628Z,0
2017-06-27T02:04:52.192Z,0
2017-06-27T02:05:32.735Z,0
2017-06-27T02:06:13.257Z,0
2017-06-27T02:06:53.790Z,0
2017-06-27T02:07:34.360Z,0
2017-06-27T02:08:14.891Z,0
2017-06-27T02:08:55.431Z,0
2017-06-27T02:09:35.979Z,0
2017-06-27T02:10:16.508Z,0
2017-06-27T02:10:57.044Z,0
2017-06-27T02:11:37.599Z,0
2017-06-27T02:12:18.134Z,0
2017-06-27T02:12:58.640Z,0
2017-06-27T02:13:39.187Z,0
2017-06-27T02:14:19.734Z,0
2017-06-27T02:15:00.278Z,0
2017-06-27T02:15:40.816Z,0
2017-06-27T02:16:21.383Z,0
2017-06-27T02:17:01.928Z,0
2017-06-27T02:17:42.477Z,0
2017-06-27T02:18:23.007Z,0
2017-06-27T02:19:03.559Z,0
2017-06-27T02:19:44.098Z,0
2017-06-27T02:20:24.669Z,0
2017-06-27T02:21:05.201Z,0
2017-06-27T02:21:45.752Z,0
2017-06-27T02:22:26.298Z,0
2017-06-27T02:23:06.855Z,0
2017-06-27T02:23:47.403Z,0
2017-06-27T02:24:27.951Z,0
2017-06-27T02:25:08.471Z,0
2017-06-27T02:25:49.010Z,0
2017-06-27T02:26:29.536Z,0
2017-06-27T02:27:10.055Z,0
2017-06-27T02:27:50.642Z,0
2017-06-27T02:28:31.161Z,0
2017-06-27T02:29:11.691Z,0
2017-06-27T02:29:52.248Z,0
2017-06-27T02:30:32.766Z,0
2017-06-27T02:31:13.297Z,0
2017-06-27T02:31:53.842Z,0
2017-06-27T02:32:34.361Z,0
2017-06-27T02:33:14.891Z,0
2017-06-27T02:33:55.422Z,0
2017-06-27T02:34:35.952Z,0
2017-06-27T02:35:16.520Z,0
2017-06-27T02:35:57.060Z,0
2017-06-27T02:36:37.596Z,0
2017-06-27T02:37:18.116Z,0
2017-06-27T02:37:58.669Z,0
2017-06-27T02:38:39.193Z,0
2017-06-27T02:39:19.746Z,0
2017-06-27T02:40:00.275Z,0
2017-06-27T02:40:40.815Z,0
2017-06-27T02:41:21.355Z,0
2017-06-27T02:42:01.886Z,0
2017-06-27T02:42:42.432Z,0
2017-06-27T02:43:22.972Z,0
2017-06-27T02:44:03.522Z,0
2017-06-27T02:44:44.046Z,0
2017-06-27T02:45:24.584Z,0
2017-06-27T02:46:05.135Z,0
2017-06-27T02:46:45.677Z,0
2017-06-27T02:47:26.218Z,0
2017-06-27T02:48:06.759Z,0
2017-06-27T02:48:47.292Z,0
2017-06-27T02:49:27.826Z,0
2017-06-27T02:50:08.366Z,0
2017-06-27T02:50:48.923Z,0
2017-06-27T02:51:29.438Z,4
2017-06-27T02:52:09.980Z,4
2017-06-27T02:52:50.524Z,4
2017-06-27T02:53:31.061Z,4
2017-06-27T02:54:11.600Z,4
2017-06-27T02:54:52.129Z,0
2017-06-27T02:55:32.648Z,0
2017-06-27T02:56:13.184Z,0
2017-06-27T02:56:53.713Z,0
2017-06-27T02:57:34.287Z,4
2017-06-27T02:58:14.827Z,4
2017-06-27T02:58:55.369Z,4
2017-06-27T02:59:35.915Z,4
2017-06-27T03:00:16.447Z,8
2017-06-27T03:00:56.991Z,4
2017-06-27T03:01:37.540Z,4
2017-06-27T03:02:18.078Z,4
2017-06-27T03:02:58.598Z,8
2017-06-27T03:03:39.147Z,8
2017-06-27T03:04:19.698Z,4
2017-06-27T03:05:00.243Z,8
2017-06-27T03:05:40.785Z,8
2017-06-27T03:06:21.345Z,8
2017-06-27T03:07:01.899Z,12
2017-06-27T03:07:42.550Z,8
2017-06-27T03:08:23.090Z,12
2017-06-27T03:09:03.640Z,12
2017-06-27T03:09:44.192Z,16
2017-06-27T03:10:24.719Z,12
2017-06-27T03:11:05.296Z,16
2017-06-27T03:11:45.838Z,16
2017-06-27T03:12:26.377Z,20
2017-06-27T03:13:06.902Z,20
2017-06-27T03:13:47.478Z,20
2017-06-27T03:14:28.043Z,28
2017-06-27T03:15:08.567Z,24
2017-06-27T03:15:49.099Z,28
2017-06-27T03:16:29.641Z,28
2017-06-27T03:17:10.160Z,32
2017-06-27T03:17:50.706Z,32
2017-06-27T03:18:31.219Z,36
2017-06-27T03:19:11.759Z,36
2017-06-27T03:19:52.324Z,36
2017-06-27T03:20:32.860Z,36
2017-06-27T03:21:13.384Z,36
2017-06-27T03:21:53.921Z,36
2017-06-27T03:22:34.476Z,40
2017-06-27T03:23:15.015Z,40
2017-06-27T03:23:55.548Z,40
2017-06-27T03:24:36.064Z,44
2017-06-27T03:25:16.603Z,44
2017-06-27T03:25:57.149Z,48
2017-06-27T03:26:37.694Z,52
2017-06-27T03:27:18.252Z,52
2017-06-27T03:27:58.773Z,56
2017-06-27T03:28:39.305Z,60
2017-06-27T03:29:19.860Z,60
2017-06-27T03:30:00.394Z,64
2017-06-27T03:30:40.945Z,68
2017-06-27T03:31:21.470Z,72
2017-06-27T03:32:02.027Z,76
2017-06-27T03:32:42.570Z,80
2017-06-27T03:33:23.120Z,84
2017-06-27T03:34:03.717Z,84
2017-06-27T03:34:44.248Z,88
2017-06-27T03:35:24.843Z,92
2017-06-27T03:36:05.388Z,96
2017-06-27T03:36:45.925Z,100
2017-06-27T03:37:26.464Z,104
2017-06-27T03:38:07.003Z,112
2017-06-27T03:38:47.574Z,112
2017-06-27T03:39:28.114Z,120
2017-06-27T03:40:08.708Z,124
2017-06-27T03:40:49.238Z,128
2017-06-27T03:41:29.776Z,132
2017-06-27T03:42:10.324Z,136
2017-06-27T03:42:50.868Z,140
2017-06-27T03:43:31.407Z,148
2017-06-27T03:44:11.944Z,156
2017-06-27T03:44:52.485Z,160
2017-06-27T03:45:33.031Z,164
2017-06-27T03:46:13.611Z,168
2017-06-27T03:46:54.154Z,172
2017-06-27T03:47:34.689Z,176
2017-06-27T03:48:15.226Z,180
2017-06-27T03:48:55.766Z,188
2017-06-27T03:49:36.284Z,192
2017-06-27T03:50:16.822Z,192
2017-06-27T03:50:57.364Z,200
2017-06-27T03:51:37.902Z,204
2017-06-27T03:52:18.440Z,208
2017-06-27T03:52:58.958Z,212
2017-06-27T03:53:39.499Z,220
2017-06-27T03:54:20.020Z,220
2017-06-27T03:55:00.542Z,228
2017-06-27T03:55:41.085Z,236
2017-06-27T03:56:21.610Z,240
2017-06-27T03:57:02.152Z,248
2017-06-27T03:57:42.689Z,252
2017-06-27T03:58:23.217Z,260
2017-06-27T03:59:03.759Z,268
2017-06-27T03:59:44.301Z,272
2017-06-27T04:00:24.824Z,280
2017-06-27T04:02:39.096Z,300
2017-06-27T04:03:19.628Z,308
2017-06-27T04:04:00.179Z,312
2017-06-27T04:04:40.716Z,320
2017-06-27T04:05:21.253Z,324
2017-06-27T04:06:01.792Z,332
2017-06-27T04:06:42.336Z,340
2017-06-27T04:07:22.895Z,348
2017-06-27T04:08:03.436Z,352
2017-06-27T04:08:43.957Z,360
2017-06-27T04:09:24.491Z,368
2017-06-27T04:10:05.032Z,376
2017-06-27T04:10:45.573Z,376
2017-06-27T04:11:26.107Z,384
2017-06-27T04:12:06.647Z,392
2017-06-27T04:12:47.183Z,400
2017-06-27T04:13:27.707Z,404
2017-06-27T04:14:08.247Z,412
2017-06-27T04:14:48.795Z,420
2017-06-27T04:15:29.335Z,428
2017-06-27T04:16:09.871Z,432
2017-06-27T04:16:50.408Z,444
2017-06-27T04:17:30.955Z,448
2017-06-27T04:18:11.498Z,456
2017-06-27T04:18:52.027Z,468
2017-06-27T04:19:32.563Z,476
2017-06-27T04:20:13.103Z,484
2017-06-27T04:20:53.607Z,492
2017-06-27T04:21:34.128Z,500
2017-06-27T04:22:14.669Z,508
2017-06-27T04:22:55.181Z,520
2017-06-27T04:23:35.818Z,532
2017-06-27T04:24:16.338Z,536
2017-06-27T04:24:56.871Z,548
2017-06-27T04:25:37.380Z,560
2017-06-27T04:26:17.918Z,568
2017-06-27T04:26:58.451Z,576
2017-06-27T04:27:39.011Z,584
2017-06-27T04:28:19.539Z,596
2017-06-27T04:29:00.073Z,604
2017-06-27T04:29:40.631Z,616
2017-06-27T04:30:21.175Z,628
2017-06-27T04:31:01.720Z,636
2017-06-27T04:31:42.264Z,648
2017-06-27T04:32:22.804Z,660
2017-06-27T04:33:03.333Z,672
2017-06-27T04:33:43.873Z,684
2017-06-27T04:34:24.413Z,700
2017-06-27T04:35:04.959Z,712
2017-06-27T04:35:45.501Z,720
2017-06-27T04:36:26.040Z,740
2017-06-27T04:37:06.684Z,752
2017-06-27T04:37:47.619Z,764
2017-06-27T04:38:28.157Z,776
2017-06-27T04:39:08.691Z,788
2017-06-27T04:39:49.257Z,796
2017-06-27T04:40:29.790Z,808
2017-06-27T04:41:10.333Z,820
2017-06-27T04:41:50.885Z,828
2017-06-27T04:42:31.429Z,844
2017-06-27T04:43:12.000Z,864
2017-06-27T04:43:52.501Z,884
2017-06-27T04:44:33.024Z,904
2017-06-27T04:45:13.569Z,928
2017-06-27T04:45:54.103Z,944
2017-06-27T04:46:34.645Z,968
2017-06-27T04:47:15.188Z,988
2017-06-27T04:47:55.734Z,1004
2017-06-27T04:48:36.263Z,1020
2017-06-27T04:49:16.793Z,1032
2017-06-27T04:49:57.311Z,1040
2017-06-27T04:50:37.833Z,1048
2017-06-27T04:51:18.362Z,1056
2017-06-27T04:51:58.909Z,1060
2017-06-27T04:52:39.420Z,1064
2017-06-27T04:53:19.950Z,1068
2017-06-27T04:54:00.491Z,1068
2017-06-27T04:54:41.031Z,1068
2017-06-27T04:55:21.602Z,1068
2017-06-27T04:56:02.140Z,1068
2017-06-27T04:56:42.673Z,1068
2017-06-27T04:57:23.213Z,1068
2017-06-27T04:58:03.762Z,1068
2017-06-27T04:58:44.285Z,1068
2017-06-27T04:59:24.856Z,1072
2017-06-27T05:00:05.378Z,1072
2017-06-27T05:00:45.918Z,1072
2017-06-27T05:01:26.458Z,1076
2017-06-27T05:02:07.041Z,1080
2017-06-27T05:02:47.575Z,1084
2017-06-27T05:03:28.108Z,1084
2017-06-27T05:04:08.651Z,1084
2017-06-27T05:04:49.167Z,1088
2017-06-27T05:05:29.671Z,1088
2017-06-27T05:06:10.319Z,1092
2017-06-27T05:06:50.867Z,1092
2017-06-27T05:07:31.405Z,1096
2017-06-27T05:08:11.928Z,1100
2017-06-27T05:08:52.450Z,1104
2017-06-27T05:09:32.987Z,1112
2017-06-27T05:10:13.541Z,1116
2017-06-27T05:10:54.079Z,1120
2017-06-27T05:11:34.618Z,1124
2017-06-27T05:12:15.163Z,1132
2017-06-27T05:12:55.705Z,1140
2017-06-27T05:13:36.231Z,1144
2017-06-27T05:14:16.792Z,1148
2017-06-27T05:14:57.296Z,1148
2017-06-27T05:15:37.807Z,1148
2017-06-27T05:16:18.369Z,1152
2017-06-27T05:16:58.920Z,1148
2017-06-27T05:17:39.493Z,1144
2017-06-27T05:18:20.030Z,1140
2017-06-27T05:19:00.564Z,1140
2017-06-27T05:19:42.935Z,1136
2017-06-27T05:20:24.652Z,1136
2017-06-27T05:21:05.972Z,1140
2017-06-27T05:21:48.062Z,1144
2017-06-27T05:22:30.649Z,1148
2017-06-27T05:23:12.365Z,1156
2017-06-27T05:23:55.068Z,1168
2017-06-27T05:24:37.473Z,1172
2017-06-27T05:25:20.211Z,1188
2017-06-27T05:26:03.041Z,1200
2017-06-27T05:26:45.470Z,1212
2017-06-27T05:27:28.218Z,1224
2017-06-27T05:28:10.576Z,1232
2017-06-27T05:28:53.554Z,1244
2017-06-27T05:29:36.054Z,1256
2017-06-27T05:30:18.626Z,1268
2017-06-27T05:31:01.579Z,1280
2017-06-27T05:31:44.228Z,1296
2017-06-27T05:32:35.855Z,1312
2017-06-27T05:33:29.456Z,1332
2017-06-27T05:34:16.505Z,1348
2017-06-27T05:34:56.994Z,1372
2017-06-27T05:35:37.533Z,1392
2017-06-27T05:36:18.055Z,1412
2017-06-27T05:36:58.611Z,1440
2017-06-27T05:37:39.138Z,1468
2017-06-27T05:38:19.710Z,1500
2017-06-27T05:39:00.268Z,1536
2017-06-27T05:39:40.820Z,1572
2017-06-27T05:40:21.363Z,1628
2017-06-27T05:41:01.891Z,1672
2017-06-27T05:41:42.395Z,1716
2017-06-27T05:42:22.912Z,1760
2017-06-27T05:43:03.411Z,1808
2017-06-27T05:43:44.590Z,1860
2017-06-27T05:44:25.096Z,1908
2017-06-27T05:45:05.593Z,1964
2017-06-27T05:45:46.074Z,2020
2017-06-27T05:46:26.733Z,2084
2017-06-27T05:47:07.663Z,2136
2017-06-27T05:47:48.236Z,2172
2017-06-27T05:48:28.765Z,2204
2017-06-27T05:49:09.298Z,2220
2017-06-27T05:49:49.785Z,2224
2017-06-27T05:50:30.298Z,2228
2017-06-27T05:51:10.925Z,2224
2017-06-27T05:51:51.452Z,2204
2017-06-27T05:52:31.936Z,2168
2017-06-27T05:53:12.446Z,2128
2017-06-27T05:53:53.031Z,2076
2017-06-27T05:54:33.539Z,2028
2017-06-27T05:55:14.070Z,1988
2017-06-27T05:55:54.592Z,1952
2017-06-27T05:56:35.115Z,1912
2017-06-27T05:57:15.602Z,1876
2017-06-27T05:57:56.224Z,1848
2017-06-27T05:58:36.711Z,1820
2017-06-27T05:59:17.719Z,1796
2017-06-27T05:59:58.306Z,1776
2017-06-27T06:00:38.793Z,1764
2017-06-27T06:01:19.268Z,1756
2017-06-27T06:01:59.820Z,1752
2017-06-27T06:02:40.298Z,1756
2017-06-27T06:03:20.828Z,1756
2017-06-27T06:04:01.319Z,1768
2017-06-27T06:04:41.819Z,1792
2017-06-27T06:05:22.367Z,1832
2017-06-27T06:06:02.882Z,1880
2017-06-27T06:06:43.371Z,1936
2017-06-27T06:07:23.929Z,1988
2017-06-27T06:08:04.411Z,2036
2017-06-27T06:08:44.937Z,2088
2017-06-27T06:09:25.433Z,2168
2017-06-27T06:10:05.944Z,2300
2017-06-27T06:10:46.503Z,2444
2017-06-27T06:11:26.983Z,2564
2017-06-27T06:12:07.493Z,2652
2017-06-27T06:12:48.008Z,2704
2017-06-27T06:13:29.380Z,2736
2017-06-27T06:14:09.957Z,2744
2017-06-27T06:14:50.475Z,2756
2017-06-27T06:15:30.975Z,2768
2017-06-27T06:16:11.537Z,2784
2017-06-27T06:16:52.177Z,2808
2017-06-27T06:17:32.802Z,2852
2017-06-27T06:18:13.329Z,2920
2017-06-27T06:18:53.795Z,2996
2017-06-27T06:19:34.478Z,3072
2017-06-27T06:20:15.043Z,3152
2017-06-27T06:20:55.571Z,3240
2017-06-27T06:21:36.268Z,3308
2017-06-27T06:22:17.082Z,3368
2017-06-27T06:22:57.614Z,3408
2017-06-27T06:23:38.148Z,3440
2017-06-27T06:24:18.655Z,3436
2017-06-27T06:24:59.137Z,3416
2017-06-27T06:25:39.781Z,3376
2017-06-27T06:26:20.288Z,3328
2017-06-27T06:27:00.892Z,3276
2017-06-27T06:27:42.143Z,3212
2017-06-27T06:28:22.651Z,3124
2017-06-27T06:29:03.222Z,3020
2017-06-27T06:29:43.792Z,2892
2017-06-27T06:30:24.328Z,2764
2017-06-27T06:31:04.799Z,2660
2017-06-27T06:31:45.306Z,2568
2017-06-27T06:32:25.821Z,2488
2017-06-27T06:33:06.312Z,2420
2017-06-27T06:33:46.845Z,2368
2017-06-27T06:34:27.304Z,2344
2017-06-27T06:35:07.832Z,2328
2017-06-27T06:35:48.341Z,2324
2017-06-27T06:36:28.893Z,2320
2017-06-27T06:37:09.421Z,2316
2017-06-27T06:37:49.950Z,2312
2017-06-27T06:38:30.421Z,2308
2017-06-27T06:39:10.999Z,2304
2017-06-27T06:39:51.490Z,2300
2017-06-27T06:40:32.026Z,2300
2017-06-27T06:41:12.649Z,2292
2017-06-27T06:41:53.174Z,2288
2017-06-27T06:42:33.765Z,2288
2017-06-27T06:43:14.248Z,2292
2017-06-27T06:43:54.749Z,2292
2017-06-27T06:44:35.237Z,2300
2017-06-27T06:45:15.722Z,2312
2017-06-27T06:45:57.070Z,2332
2017-06-27T06:46:37.678Z,2352
2017-06-27T06:47:18.200Z,2372
2017-06-27T06:47:58.757Z,2392
2017-06-27T06:48:39.263Z,2404
2017-06-27T06:49:19.770Z,2420
2017-06-27T06:50:00.271Z,2440
2017-06-27T06:50:40.796Z,2468
2017-06-27T06:51:21.312Z,2520
2017-06-27T06:52:01.816Z,2604
2017-06-27T06:52:42.379Z,2700
2017-06-27T06:53:22.869Z,2824
2017-06-27T06:54:03.415Z,2972
2017-06-27T06:54:43.947Z,3128
2017-06-27T06:55:24.527Z,3296
2017-06-27T06:56:05.040Z,3468
2017-06-27T06:56:45.567Z,3644
2017-06-27T06:57:26.042Z,3832
2017-06-27T06:58:06.577Z,4020
2017-06-27T06:58:47.133Z,4236
2017-06-27T06:59:27.635Z,4436
2017-06-27T07:00:08.147Z,4612
2017-06-27T07:00:48.608Z,4748
2017-06-27T07:01:30.076Z,4840
2017-06-27T07:02:10.641Z,4864
2017-06-27T07:02:51.195Z,4840
2017-06-27T07:03:31.767Z,4764
2017-06-27T07:04:12.237Z,4652
2017-06-27T07:04:52.717Z,4572
2017-06-27T07:05:33.265Z,4520
2017-06-27T07:06:13.746Z,4512
2017-06-27T07:06:54.306Z,4508
2017-06-27T07:07:34.821Z,4516
2017-06-27T07:08:15.275Z,4536
2017-06-27T07:08:55.781Z,4580
2017-06-27T07:09:36.348Z,4652
2017-06-27T07:10:16.783Z,4752
2017-06-27T07:10:57.345Z,4880
2017-06-27T07:11:37.878Z,5000
2017-06-27T07:12:18.379Z,5068
2017-06-27T07:12:58.874Z,5112
2017-06-27T07:13:39.357Z,5124
2017-06-27T07:14:19.840Z,5140
2017-06-27T07:15:00.361Z,5220
2017-06-27T07:15:40.888Z,5320
2017-06-27T07:16:21.982Z,5372
2017-06-27T07:17:02.508Z,5400
2017-06-27T07:17:43.076Z,5368
2017-06-27T07:18:23.524Z,5320
2017-06-27T07:19:04.049Z,5272
2017-06-27T07:19:44.527Z,5272
2017-06-27T07:20:25.072Z,5176
2017-06-27T07:21:05.606Z,5104
2017-06-27T07:21:46.114Z,5028
2017-06-27T07:22:26.631Z,5000
2017-06-27T07:23:07.188Z,5016
2017-06-27T07:23:47.743Z,5024
2017-06-27T07:24:28.255Z,5040
2017-06-27T07:25:08.727Z,5056
2017-06-27T07:25:49.212Z,5096
2017-06-27T07:26:29.797Z,5180
2017-06-27T07:27:10.290Z,5256
2017-06-27T07:27:50.806Z,5280
2017-06-27T07:28:31.517Z,5228
2017-06-27T07:29:12.030Z,5176
2017-06-27T07:29:52.543Z,5184
2017-06-27T07:30:33.056Z,5292
2017-06-27T07:31:13.547Z,5424
2017-06-27T07:31:54.020Z,5568
2017-06-27T07:32:34.613Z,5716
2017-06-27T07:33:15.114Z,5824
2017-06-27T07:33:55.717Z,5852
2017-06-27T07:34:36.213Z,5864
2017-06-27T07:35:16.737Z,5908
2017-06-27T07:35:57.274Z,5972
2017-06-27T07:36:37.816Z,6056
2017-06-27T07:37:18.358Z,6188
2017-06-27T07:37:58.910Z,6360
2017-06-27T07:38:39.462Z,6460
2017-06-27T07:39:20.012Z,6476
2017-06-27T07:40:00.556Z,6512
2017-06-27T07:40:41.112Z,6632
2017-06-27T07:41:21.664Z,6808
2017-06-27T07:42:02.208Z,6976
2017-06-27T07:42:42.755Z,7104
2017-06-27T07:43:23.304Z,7180
2017-06-27T07:44:03.825Z,7236
2017-06-27T07:44:44.358Z,7220
2017-06-27T07:45:24.886Z,7208
2017-06-27T07:46:05.426Z,7172
2017-06-27T07:46:45.972Z,7164
2017-06-27T07:47:26.484Z,7156
2017-06-27T07:48:06.978Z,7108
2017-06-27T07:48:47.565Z,7020
2017-06-27T07:49:28.070Z,6884
2017-06-27T07:50:08.567Z,6712
2017-06-27T07:50:49.111Z,6548
2017-06-27T07:51:29.616Z,6452
2017-06-27T07:52:10.089Z,6392
2017-06-27T07:52:50.611Z,6276
2017-06-27T07:53:31.146Z,6248
2017-06-27T07:54:11.622Z,6228
2017-06-27T07:54:52.168Z,6212
2017-06-27T07:55:32.736Z,6212
2017-06-27T07:56:13.235Z,6076
2017-06-27T07:56:53.739Z,5952
2017-06-27T07:57:34.277Z,5900
2017-06-27T07:58:14.774Z,5892
2017-06-27T07:58:55.273Z,5916
2017-06-27T07:59:35.818Z,5944
2017-06-27T08:00:16.377Z,5928
2017-06-27T08:00:56.874Z,5920
2017-06-27T08:01:37.387Z,5920
2017-06-27T08:02:17.934Z,5904
2017-06-27T08:02:58.481Z,5860
2017-06-27T08:03:39.024Z,5836
2017-06-27T08:04:19.579Z,5872
2017-06-27T08:05:00.123Z,5940
2017-06-27T08:05:40.685Z,5988
2017-06-27T08:06:21.230Z,5980
2017-06-27T08:07:01.779Z,5956
2017-06-27T08:07:42.328Z,5924
2017-06-27T08:08:22.877Z,5916
2017-06-27T08:09:03.440Z,5984
2017-06-27T08:09:43.986Z,6028
2017-06-27T08:10:24.531Z,6072
2017-06-27T08:11:05.093Z,6160
2017-06-27T08:11:45.638Z,6192
2017-06-27T08:12:26.145Z,6152
2017-06-27T08:13:06.802Z,6000
2017-06-27T08:13:47.282Z,5808
2017-06-27T08:14:27.776Z,5624
2017-06-27T08:15:08.270Z,5468
2017-06-27T08:15:48.790Z,5380
2017-06-27T08:16:29.278Z,5320
2017-06-27T08:17:09.806Z,5260
2017-06-27T08:17:50.306Z,5192
2017-06-27T08:18:30.797Z,5124
2017-06-27T08:19:11.365Z,5084
2017-06-27T08:19:51.881Z,5068
2017-06-27T08:20:32.376Z,5076
2017-06-27T08:21:12.903Z,5120
2017-06-27T08:21:53.446Z,5156
2017-06-27T08:22:34.001Z,5200
2017-06-27T08:23:14.505Z,5248
2017-06-27T08:23:54.992Z,5308
2017-06-27T08:24:35.507Z,5360
2017-06-27T08:25:16.029Z,5376
2017-06-27T08:25:56.569Z,5324
2017-06-27T08:26:37.097Z,5208
2017-06-27T08:27:17.639Z,5084
2017-06-27T08:27:58.161Z,4932
2017-06-27T08:28:38.703Z,4784
2017-06-27T08:29:19.293Z,4660
2017-06-27T08:29:59.813Z,4584
2017-06-27T08:30:40.345Z,4516
2017-06-27T08:31:20.890Z,4424
2017-06-27T08:32:01.445Z,4324
2017-06-27T08:32:41.987Z,4216
2017-06-27T08:33:22.548Z,4108
2017-06-27T08:34:03.099Z,4016
2017-06-27T08:34:43.643Z,3984
2017-06-27T08:35:24.195Z,3980
2017-06-27T08:36:04.740Z,3996
2017-06-27T08:36:45.290Z,4024
2017-06-27T08:37:25.801Z,4068
2017-06-27T08:38:06.307Z,4128
2017-06-27T08:38:46.842Z,4168
2017-06-27T08:39:27.371Z,4200
2017-06-27T08:40:08.343Z,4220
2017-06-27T08:40:48.890Z,4232
2017-06-27T08:41:29.476Z,4272
2017-06-27T08:42:10.017Z,4324
2017-06-27T08:42:51.442Z,4408
2017-06-27T08:43:31.934Z,4520
2017-06-27T08:44:12.434Z,4652
2017-06-27T08:44:52.939Z,4780
2017-06-27T08:45:33.492Z,4892
2017-06-27T08:46:14.008Z,4980
2017-06-27T08:46:54.494Z,5024
2017-06-27T08:47:34.985Z,5024
2017-06-27T08:48:15.478Z,5000
2017-06-27T08:48:56.020Z,4992
2017-06-27T08:49:36.520Z,4980
2017-06-27T08:50:17.014Z,4956
2017-06-27T08:50:57.567Z,4908
2017-06-27T08:51:38.015Z,4848
2017-06-27T08:52:18.515Z,4824
2017-06-27T08:52:59.010Z,4832
2017-06-27T08:53:39.540Z,4816
2017-06-27T08:54:20.084Z,4776
2017-06-27T08:55:00.544Z,4720
2017-06-27T08:55:41.120Z,4656
2017-06-27T08:56:21.662Z,4592
2017-06-27T08:57:02.160Z,4548
2017-06-27T08:57:42.705Z,4560
2017-06-27T08:58:23.179Z,4588
2017-06-27T08:59:03.704Z,4632
2017-06-27T08:59:44.235Z,4708
2017-06-27T09:00:24.771Z,4816
2017-06-27T09:01:05.289Z,4940
2017-06-27T09:01:45.842Z,5096
2017-06-27T09:02:26.323Z,5288
2017-06-27T09:03:06.837Z,5508
2017-06-27T09:03:47.319Z,5704
2017-06-27T09:04:27.892Z,5844
2017-06-27T09:05:08.439Z,5944
2017-06-27T09:05:48.960Z,6028
2017-06-27T09:06:29.531Z,6124
2017-06-27T09:07:10.044Z,6236
2017-06-27T09:07:50.527Z,6340
2017-06-27T09:08:31.044Z,6480
2017-06-27T09:09:11.618Z,6648
2017-06-27T09:09:52.113Z,6928
2017-06-27T09:10:32.596Z,7372
2017-06-27T09:11:13.159Z,7940
2017-06-27T09:11:53.659Z,8532
2017-06-27T09:12:34.209Z,9052
2017-06-27T09:13:14.732Z,9472
2017-06-27T09:13:55.243Z,9516
2017-06-27T09:14:35.727Z,9216
2017-06-27T09:15:16.282Z,8844
2017-06-27T09:15:57.585Z,8544
2017-06-27T09:16:38.081Z,8236
2017-06-27T09:17:18.645Z,7968
2017-06-27T09:17:59.162Z,7772
2017-06-27T09:18:39.655Z,7620
2017-06-27T09:19:20.150Z,7480
2017-06-27T09:20:00.651Z,7324
2017-06-27T09:20:41.202Z,7308
2017-06-27T09:21:21.714Z,7104
2017-06-27T09:22:02.224Z,6940
2017-06-27T09:22:42.763Z,6904
2017-06-27T09:23:23.321Z,6860
2017-06-27T09:24:03.863Z,6784
2017-06-27T09:24:44.409Z,6664
2017-06-27T09:25:24.955Z,6464